Time;durP1;ratioP1;P1;durP2;ratioP2;P2;SDS_P1;SDS_P2;PMS_P1;PMS_P2;Temp;Humidity;BMP_temperature;BMP_pressure;BME280_temperature;BME280_humidity;BME280_pressure;Samples;Min_cycle;Max_cycle;Signal;HPM_P1;HPM_P2
2022/08/27 00:00:47;;;;;;;17.05;7.00;;;;;;;18.07;69.17;98584.86;1786645;79;21050;-81
2022/08/27 00:03:14;;;;;;;13.40;6.70;;;;;;;17.99;66.30;98580.56;1751167;81;20995;-80
2022/08/27 00:05:42;;;;;;;15.55;5.50;;;;;;;17.88;68.90;98583.86;1784350;79;21487;-81
2022/08/27 00:08:11;;;;;;;9.05;4.35;;;;;;;17.80;69.71;98582.98;1788099;80;21049;-81
2022/08/27 00:10:39;;;;;;;8.50;4.17;;;;;;;17.73;67.13;98584.81;1751227;82;21554;-81
2022/08/27 00:13:05;;;;;;;10.28;4.10;;;;;;;17.58;66.60;98583.97;1767303;79;21038;-80
2022/08/27 00:15:32;;;;;;;10.18;4.00;;;;;;;17.48;67.00;98586.31;1750784;82;21037;-80
2022/08/27 00:17:59;;;;;;;11.20;4.80;;;;;;;17.39;68.13;98582.48;1788275;80;21319;-81
2022/08/27 00:20:27;;;;;;;13.45;4.12;;;;;;;17.32;67.24;98586.41;1743802;80;21054;-81
2022/08/27 00:22:53;;;;;;;11.08;4.67;;;;;;;17.27;67.57;98585.38;1735726;82;21000;-80
2022/08/27 00:25:20;;;;;;;12.90;4.60;;;;;;;17.21;67.21;98588.83;1787209;79;20955;-81
2022/08/27 00:27:47;;;;;;;12.53;4.28;;;;;;;17.13;67.71;98588.45;1750938;82;21043;-82
2022/08/27 00:30:17;;;;;;;18.10;4.25;;;;;;;17.06;67.90;98585.36;1787923;80;21021;-82
2022/08/27 00:32:44;;;;;;;10.68;3.72;;;;;;;17.02;70.53;98585.16;1774254;79;21015;-81
2022/08/27 00:35:13;;;;;;;8.53;4.10;;;;;;;17.02;69.84;98574.66;1786747;79;20959;-81
2022/08/27 00:37:39;;;;;;;7.60;4.17;;;;;;;17.01;69.74;98578.20;1751511;82;21015;-80
2022/08/27 00:40:11;;;;;;;13.98;3.83;;;;;;;17.02;70.74;98577.29;1788762;79;21062;-82
2022/08/27 00:42:38;;;;;;;15.38;4.10;;;;;;;17.06;70.96;98582.73;1730403;82;21027;-81
2022/08/27 00:45:07;;;;;;;8.18;4.15;;;;;;;17.14;70.19;98580.96;1788705;80;21556;-81
2022/08/27 00:47:39;;;;;;;7.10;4.10;;;;;;;17.19;69.31;98576.26;1730325;82;21007;-81
2022/08/27 00:50:11;;;;;;;11.35;3.85;;;;;;;17.19;69.41;98571.88;1807114;79;20959;-81
2022/08/27 00:52:54;;;;;;;11.00;4.22;;;;;;;17.22;70.19;98572.15;1793820;79;21014;-82
2022/08/27 00:55:29;;;;;;;7.37;4.22;;;;;;;17.24;70.53;98572.42;1788071;79;21002;-81
2022/08/27 00:58:16;;;;;;;11.00;4.60;;;;;;;17.24;68.98;98575.05;1739915;82;21015;-81
2022/08/27 01:00:45;;;;;;;9.38;3.98;;;;;;;17.18;69.22;98575.42;1785307;80;21049;-80
2022/08/27 01:03:13;;;;;;;8.05;4.17;;;;;;;17.18;69.52;98580.67;1739100;81;21474;-81
2022/08/27 01:05:43;;;;;;;9.90;4.10;;;;;;;17.13;69.98;98580.12;1759807;81;21006;-80
2022/08/27 01:08:18;;;;;;;7.92;3.70;;;;;;;17.11;71.35;98585.94;1737184;81;21025;-80
2022/08/27 01:10:45;;;;;;;9.63;3.92;;;;;;;17.06;69.67;98594.55;1794192;78;21014;-80
2022/08/27 01:13:15;;;;;;;14.78;4.35;;;;;;;16.98;71.43;98587.59;1753530;80;21011;-81
2022/08/27 01:15:43;;;;;;;9.05;4.50;;;;;;;16.95;70.48;98590.39;1713509;81;21515;-79
2022/08/27 01:18:12;;;;;;;9.70;4.30;;;;;;;16.92;70.90;98582.72;1755752;81;21000;-81
2022/08/27 01:20:49;;;;;;;11.35;4.20;;;;;;;16.89;72.69;98579.34;1796810;78;21010;-82
2022/08/27 01:23:30;;;;;;;9.03;4.65;;;;;;;16.86;70.94;98587.86;1739645;81;21006;-80
2022/08/27 01:25:58;;;;;;;12.85;4.53;;;;;;;16.79;70.50;98584.72;1740830;81;21565;-81
2022/08/27 01:28:25;;;;;;;10.95;4.60;;;;;;;16.74;71.37;98588.08;1759901;81;21484;-81
2022/08/27 01:30:52;;;;;;;16.82;4.78;;;;;;;16.69;72.70;98587.48;1738659;81;21042;-80
2022/08/27 01:33:21;;;;;;;10.32;3.92;;;;;;;16.64;70.87;98582.98;1759910;81;21455;-82
2022/08/27 01:35:51;;;;;;;9.55;4.10;;;;;;;16.59;72.86;98584.58;1738573;80;21042;-80
2022/08/27 01:38:20;;;;;;;14.40;4.40;;;;;;;16.58;73.13;98582.03;1760096;81;21011;-81
2022/08/27 01:40:47;;;;;;;16.00;4.53;;;;;;;16.59;71.72;98584.58;1757151;81;21021;-81
2022/08/27 01:43:13;;;;;;;12.07;4.08;;;;;;;16.56;70.33;98590.46;1730018;82;21008;-80
2022/08/27 01:45:45;;;;;;;14.63;4.80;;;;;;;16.57;72.67;98594.76;1749943;81;21093;-80
2022/08/27 01:48:12;;;;;;;8.70;4.28;;;;;;;16.59;73.22;98587.20;1740105;81;20966;-81
2022/08/27 01:50:40;;;;;;;10.68;4.80;;;;;;;16.60;74.16;98589.34;1792482;78;21002;-78
2022/08/27 01:53:15;;;;;;;17.98;4.53;;;;;;;16.60;73.28;98588.88;1759485;81;20986;-80
2022/08/27 01:55:43;;;;;;;13.35;4.40;;;;;;;16.61;71.67;98585.33;1720397;81;21042;-80
2022/08/27 01:58:11;;;;;;;8.85;4.42;;;;;;;16.60;72.53;98586.72;1740086;81;21219;-81
2022/08/27 02:00:41;;;;;;;10.65;3.70;;;;;;;16.59;73.10;98595.52;1732050;81;21011;-80
2022/08/27 02:03:09;;;;;;;12.13;5.00;;;;;;;16.58;73.85;98593.84;1722133;81;21035;-80
2022/08/27 02:05:38;;;;;;;14.05;4.80;;;;;;;16.56;74.22;98589.15;1725603;83;21513;-81
2022/08/27 02:08:06;;;;;;;16.52;4.37;;;;;;;16.53;73.70;98588.00;1726351;83;21043;-80
2022/08/27 02:10:37;;;;;;;9.90;4.05;;;;;;;16.50;73.75;98592.48;1722186;83;21082;-81
2022/08/27 02:13:07;;;;;;;7.85;4.42;;;;;;;16.49;74.01;98596.06;1707835;83;21036;-80
2022/08/27 02:15:36;;;;;;;10.35;4.62;;;;;;;16.46;73.61;98593.60;1705974;82;21020;-81
2022/08/27 02:18:05;;;;;;;12.03;4.75;;;;;;;16.44;73.13;98594.16;1725907;83;20966;-81
2022/08/27 02:20:33;;;;;;;9.10;4.60;;;;;;;16.42;73.41;98586.84;1727786;83;21026;-79
2022/08/27 02:23:00;;;;;;;13.08;4.60;;;;;;;16.41;73.54;98597.41;1728168;83;20990;-80
2022/08/27 02:25:28;;;;;;;16.17;4.83;;;;;;;16.38;72.68;98589.27;1723316;83;21030;-81
2022/08/27 02:27:58;;;;;;;11.18;4.60;;;;;;;16.37;73.47;98596.73;1713492;83;21014;-81
2022/08/27 02:30:28;;;;;;;10.10;4.30;;;;;;;16.35;73.35;98597.77;1727697;81;21030;-80
2022/08/27 02:32:55;;;;;;;10.15;4.80;;;;;;;16.30;72.87;98600.19;1728253;81;21057;-81
2022/08/27 02:35:23;;;;;;;12.40;4.53;;;;;;;16.24;70.99;98607.09;1725420;81;21051;-82
2022/08/27 02:37:52;;;;;;;10.88;5.17;;;;;;;16.18;71.83;98607.91;1780177;80;20990;-82
2022/08/27 02:40:21;;;;;;;7.15;3.80;;;;;;;16.14;72.40;98611.63;1759553;80;21072;-82
2022/08/27 02:42:48;;;;;;;11.05;4.50;;;;;;;16.11;73.14;98612.63;1726761;82;21032;-81
2022/08/27 02:45:16;;;;;;;9.85;4.30;;;;;;;16.08;71.75;98611.03;1745732;81;21047;-80
2022/08/27 02:47:43;;;;;;;10.95;4.10;;;;;;;16.06;73.03;98614.20;1746121;81;20972;-81
2022/08/27 02:50:12;;;;;;;13.88;4.75;;;;;;;16.06;74.09;98610.27;1731263;82;21011;-80
2022/08/27 02:52:40;;;;;;;8.30;4.15;;;;;;;16.08;74.67;98608.41;1722729;81;21078;-81
2022/08/27 02:55:07;;;;;;;12.33;3.70;;;;;;;16.12;74.55;98609.09;1730781;81;21819;-81
2022/08/27 02:57:34;;;;;;;11.18;4.05;;;;;;;16.15;74.39;98609.38;1727938;81;21051;-81
2022/08/27 03:00:02;;;;;;;9.48;4.30;;;;;;;16.16;74.65;98609.30;1715136;82;21059;-82
2022/08/27 03:02:29;;;;;;;12.07;4.17;;;;;;;16.19;75.17;98610.42;1748558;82;20992;-81
2022/08/27 03:04:56;;;;;;;9.65;4.65;;;;;;;16.21;75.29;98621.67;1795137;80;21080;-81
2022/08/27 03:07:23;;;;;;;14.73;4.50;;;;;;;16.23;75.45;98617.66;1769670;81;20995;-84
2022/08/27 03:09:51;;;;;;;9.43;4.28;;;;;;;16.25;75.78;98614.48;1779549;79;21065;-82
2022/08/27 03:12:17;;;;;;;10.25;4.37;;;;;;;16.28;75.61;98613.02;1767907;80;21075;-81
2022/08/27 03:14:44;;;;;;;11.15;3.90;;;;;;;16.29;75.65;98618.62;1796992;78;21007;-82
2022/08/27 03:19:56;;;;;;;8.80;4.80;;;;;;;16.24;76.05;98620.20;1764837;80;22197;-81
2022/08/27 03:22:23;;;;;;;11.43;4.70;;;;;;;16.19;74.74;98625.31;1773485;80;20968;-81
2022/08/27 03:24:49;;;;;;;12.13;4.87;;;;;;;16.13;74.28;98626.50;1761588;81;21007;-81
2022/08/27 03:27:16;;;;;;;9.78;4.70;;;;;;;16.08;75.34;98629.86;1797808;79;20950;-80
2022/08/27 03:29:43;;;;;;;10.95;4.67;;;;;;;16.04;75.11;98631.80;1761456;81;20997;-81
2022/08/27 03:32:09;;;;;;;9.00;4.92;;;;;;;15.95;74.25;98633.59;1760675;81;21009;-80
2022/08/27 03:34:36;;;;;;;10.35;4.47;;;;;;;15.88;76.21;98634.88;1780320;78;21010;-80
2022/08/27 03:37:03;;;;;;;11.15;4.87;;;;;;;15.76;73.31;98636.86;1730788;81;21022;-80
2022/08/27 03:39:30;;;;;;;12.88;5.10;;;;;;;15.67;75.04;98640.29;1828439;78;21037;-81
2022/08/27 03:41:56;;;;;;;12.00;4.95;;;;;;;15.64;75.92;98641.78;1808154;78;21525;-81
2022/08/27 03:44:24;;;;;;;14.07;4.28;;;;;;;15.60;76.21;98648.58;1765349;81;20985;-80
2022/08/27 03:46:51;;;;;;;12.75;5.00;;;;;;;15.55;75.78;98645.34;1779439;80;20986;-80
2022/08/27 03:49:21;;;;;;;11.45;4.83;;;;;;;15.53;75.71;98651.13;1797515;78;21030;-80
2022/08/27 03:51:51;;;;;;;11.28;4.28;;;;;;;15.51;76.66;98647.27;1750384;80;21063;-80
2022/08/27 03:54:17;;;;;;;8.13;3.92;;;;;;;15.51;76.13;98649.89;1792723;78;21977;-81
2022/08/27 03:56:44;;;;;;;9.93;3.60;;;;;;;15.51;76.17;98644.19;1797942;80;20982;-80
2022/08/27 03:59:11;;;;;;;9.05;3.87;;;;;;;15.55;75.44;98650.11;1765910;81;21063;-81
2022/08/27 04:01:37;;;;;;;16.57;4.40;;;;;;;15.58;75.40;98648.66;1788686;79;21018;-82
2022/08/27 04:04:04;;;;;;;11.00;3.85;;;;;;;15.63;75.66;98652.34;1788451;80;21077;-81
2022/08/27 04:06:34;;;;;;;14.25;3.67;;;;;;;15.67;75.50;98647.31;1793900;79;20955;-81
2022/08/27 04:09:00;;;;;;;8.50;3.85;;;;;;;15.71;74.74;98653.61;1784221;79;21042;-82
2022/08/27 04:11:28;;;;;;;13.83;3.60;;;;;;;15.75;75.37;98645.63;1738127;82;22043;-80
2022/08/27 04:13:55;;;;;;;18.92;4.40;;;;;;;15.80;74.71;98646.25;1735685;82;20996;-81
2022/08/27 04:16:24;;;;;;;12.23;3.90;;;;;;;15.83;75.55;98643.44;1735240;82;21059;-81
2022/08/27 04:18:51;;;;;;;8.85;4.05;;;;;;;15.89;74.96;98650.97;1727987;81;20973;-82
2022/08/27 04:21:17;;;;;;;11.20;3.85;;;;;;;15.97;75.00;98657.12;1789971;80;21022;-81
2022/08/27 04:23:44;;;;;;;14.65;4.30;;;;;;;16.01;74.64;98655.55;1746080;82;20980;-81
2022/08/27 04:26:11;;;;;;;11.45;4.75;;;;;;;16.05;73.97;98653.61;1746239;82;21011;-82
2022/08/27 04:28:38;;;;;;;10.78;4.90;;;;;;;15.99;73.16;98648.70;1739788;80;21043;-80
2022/08/27 04:31:05;;;;;;;11.93;4.17;;;;;;;15.94;74.05;98655.52;1724036;81;21089;-81
2022/08/27 04:33:33;;;;;;;7.97;3.62;;;;;;;15.97;73.86;98655.80;1798983;79;21022;-80
2022/08/27 04:36:04;;;;;;;8.60;3.85;;;;;;;15.91;73.36;98656.98;1745585;82;21090;-82
2022/08/27 04:38:32;;;;;;;11.68;4.12;;;;;;;15.87;73.22;98657.60;1726675;82;21052;-80
2022/08/27 04:41:22;;;;;;;7.45;3.85;;;;;;;15.87;72.50;98663.31;1716488;82;21007;-81
2022/08/27 04:43:54;;;;;;;5.83;3.40;;;;;;;15.81;72.91;98664.48;1716154;83;21063;-82
2022/08/27 04:46:23;;;;;;;8.33;4.62;;;;;;;15.77;73.00;98660.34;1727757;82;21077;-81
2022/08/27 04:48:50;;;;;;;12.13;3.87;;;;;;;15.79;73.08;98662.88;1728211;81;21002;-81
2022/08/27 04:51:19;;;;;;;10.95;4.20;;;;;;;15.84;73.29;98659.56;1739033;81;21023;-82
2022/08/27 04:53:46;;;;;;;11.05;4.42;;;;;;;15.89;74.38;98660.14;1824058;79;21467;-81
2022/08/27 04:56:16;;;;;;;9.75;4.03;;;;;;;15.92;74.15;98658.69;1791080;79;21002;-82
2022/08/27 04:58:43;;;;;;;9.60;3.92;;;;;;;15.95;73.62;98655.88;1745792;82;21031;-83
2022/08/27 05:01:20;;;;;;;12.40;4.15;;;;;;;16.01;74.30;98659.48;1746310;79;21000;-81
2022/08/27 05:03:48;;;;;;;9.08;3.37;;;;;;;16.09;74.09;98663.88;1746162;82;20968;-81
2022/08/27 05:06:16;;;;;;;11.45;3.67;;;;;;;16.19;74.20;98667.28;1745799;80;21066;-80
2022/08/27 05:08:43;;;;;;;11.28;3.98;;;;;;;16.24;73.33;98670.51;1731701;82;21447;-80
2022/08/27 05:11:13;;;;;;;9.43;4.08;;;;;;;16.31;73.38;98663.98;1739188;82;21039;-81
2022/08/27 05:13:42;;;;;;;10.63;4.20;;;;;;;16.40;73.23;98662.64;1725267;82;21090;-81
2022/08/27 05:16:14;;;;;;;14.45;3.83;;;;;;;16.45;73.09;98668.45;1730240;82;21021;-81
2022/08/27 05:18:41;;;;;;;10.82;4.30;;;;;;;16.48;72.82;98671.76;1730992;81;21534;-81
2022/08/27 05:21:09;;;;;;;13.43;4.33;;;;;;;16.52;73.02;98669.81;1806287;79;21069;-82
2022/08/27 05:23:35;;;;;;;9.75;4.53;;;;;;;16.63;73.13;98669.20;1788521;80;20986;-81
2022/08/27 05:26:02;;;;;;;10.82;4.72;;;;;;;16.70;73.07;98673.17;1745470;82;21031;-80
2022/08/27 05:28:29;;;;;;;14.07;5.20;;;;;;;16.74;73.12;98665.98;1744861;82;21083;-82
2022/08/27 05:31:04;;;;;;;10.75;4.83;;;;;;;16.79;72.63;98670.04;1746270;82;20960;-80
2022/08/27 05:33:31;;;;;;;14.05;4.72;;;;;;;16.81;72.46;98668.61;1745901;82;20992;-81
2022/08/27 05:35:59;;;;;;;10.50;5.35;;;;;;;16.87;72.67;98676.16;1737470;82;21110;-82
2022/08/27 05:38:29;;;;;;;16.65;4.80;;;;;;;16.94;72.06;98670.11;1735073;82;21011;-81
2022/08/27 05:41:10;;;;;;;11.85;4.75;;;;;;;17.03;71.97;98676.13;1723314;81;20974;-81
2022/08/27 05:43:40;;;;;;;13.22;5.37;;;;;;;17.12;72.16;98678.22;1728290;81;21061;-81
2022/08/27 05:46:11;;;;;;;15.35;5.28;;;;;;;17.24;71.92;98674.87;1728317;81;21004;-81
2022/08/27 05:48:39;;;;;;;13.00;4.80;;;;;;;17.35;71.44;98674.25;1728459;81;21506;-82
2022/08/27 05:51:17;;;;;;;14.20;5.17;;;;;;;17.44;70.24;98676.79;1706810;83;21017;-81
2022/08/27 05:53:44;;;;;;;18.90;4.87;;;;;;;17.46;70.38;98675.75;1721533;83;21345;-82
2022/08/27 05:56:22;;;;;;;25.48;5.47;;;;;;;17.53;70.11;98679.32;1701398;83;21010;-83
2022/08/27 06:01:39;;;;;;;12.80;4.95;;;;;;;17.68;69.84;98663.47;1717397;82;21533;-81
2022/08/27 06:04:07;;;;;;;9.38;5.00;;;;;;;17.78;69.12;98670.32;1745570;82;21063;-81
2022/08/27 06:06:36;;;;;;;19.95;5.20;;;;;;;17.84;69.03;98668.66;1745643;81;20988;-81
2022/08/27 06:09:04;;;;;;;10.03;4.90;;;;;;;17.91;68.79;98673.09;1745479;82;20996;-81
2022/08/27 06:11:31;;;;;;;14.68;5.30;;;;;;;17.99;68.70;98672.14;1735538;81;20925;-81
2022/08/27 06:13:58;;;;;;;12.23;5.28;;;;;;;18.04;68.35;98669.21;1745606;82;21063;-81
2022/08/27 06:16:24;;;;;;;15.28;5.65;;;;;;;18.10;68.29;98671.45;1798069;80;20950;-81
2022/08/27 06:18:52;;;;;;;26.93;5.53;;;;;;;18.16;68.21;98664.97;1798315;78;21005;-81
2022/08/27 06:21:19;;;;;;;12.75;5.20;;;;;;;18.22;67.95;98673.34;1784943;80;21061;-81
2022/08/27 06:23:46;;;;;;;8.90;4.85;;;;;;;18.32;68.12;98670.11;1749059;80;20991;-82
2022/08/27 06:26:17;;;;;;;14.63;5.55;;;;;;;18.42;68.05;98674.70;1771575;80;20994;-82
2022/08/27 06:28:44;;;;;;;13.78;5.87;;;;;;;18.52;67.78;98669.66;1765259;81;21026;-82
2022/08/27 06:31:26;;;;;;;12.55;5.53;;;;;;;18.61;67.52;98672.19;1796486;78;21597;-80
2022/08/27 06:33:59;;;;;;;12.88;5.35;;;;;;;18.72;67.23;98676.75;1766780;81;21014;-82
2022/08/27 06:36:28;;;;;;;11.00;4.85;;;;;;;18.82;66.99;98678.73;1797501;78;21049;-80
2022/08/27 06:38:55;;;;;;;10.03;5.20;;;;;;;18.92;66.42;98674.16;1766737;81;20974;-81
2022/08/27 06:41:27;;;;;;;16.07;5.28;;;;;;;19.01;66.24;98679.66;1798111;80;20991;-82
2022/08/27 06:43:55;;;;;;;14.10;5.35;;;;;;;19.11;66.05;98681.21;1797558;78;21028;-85
2022/08/27 06:46:26;;;;;;;17.42;4.95;;;;;;;19.22;65.96;98676.56;1768720;81;20974;-85
2022/08/27 06:48:57;;;;;;;8.43;5.20;;;;;;;19.34;65.47;98673.09;1801593;78;21061;-82
2022/08/27 06:51:31;;;;;;;10.58;4.80;;;;;;;19.43;65.06;98672.92;1767458;81;20987;-82
2022/08/27 06:54:02;;;;;;;9.10;4.67;;;;;;;19.52;64.90;98672.31;1777376;78;21380;-83
2022/08/27 06:56:30;;;;;;;10.40;4.25;;;;;;;19.62;64.75;98674.67;1766574;81;21082;-80
2022/08/27 06:59:01;;;;;;;12.40;4.72;;;;;;;19.73;64.52;98663.41;1817466;78;21010;-81
2022/08/27 07:01:35;;;;;;;10.25;4.40;;;;;;;19.84;64.27;98670.58;1704516;83;21499;-83
2022/08/27 07:04:06;;;;;;;13.00;3.83;;;;;;;19.96;63.03;98662.28;1743525;82;21056;-82
2022/08/27 07:06:35;;;;;;;9.95;3.65;;;;;;;20.07;63.35;98657.07;1740695;81;21025;-81
2022/08/27 07:09:02;;;;;;;9.83;4.10;;;;;;;20.22;62.65;98657.30;1813911;78;20995;-82
2022/08/27 07:11:34;;;;;;;6.60;3.47;;;;;;;20.30;62.60;98659.39;1743038;81;20991;-81
2022/08/27 07:13:59;;;;;;;13.78;3.20;;;;;;;20.41;62.28;98650.69;1783780;78;21006;-81
2022/08/27 07:16:27;;;;;;;7.90;3.22;;;;;;;20.54;60.81;98657.25;1752416;81;21006;-81
2022/08/27 07:18:57;;;;;;;9.05;3.77;;;;;;;20.65;60.06;98659.96;1817132;78;20970;-82
2022/08/27 07:21:25;;;;;;;9.43;3.50;;;;;;;20.73;58.99;98652.80;1754475;82;21030;-81
2022/08/27 07:23:55;;;;;;;8.50;3.20;;;;;;;20.84;59.91;98650.21;1733110;80;20971;-82
2022/08/27 07:26:23;;;;;;;10.63;2.80;;;;;;;20.96;59.42;98655.89;1754176;82;20998;-82
2022/08/27 07:28:50;;;;;;;9.20;2.95;;;;;;;21.11;58.53;98645.13;1754204;82;20998;-82
2022/08/27 07:31:20;;;;;;;8.03;2.85;;;;;;;21.23;58.42;98641.09;1749202;81;21532;-82
2022/08/27 07:33:47;;;;;;;15.35;3.83;;;;;;;21.33;56.51;98648.30;1698591;82;21502;-82
2022/08/27 07:36:14;;;;;;;8.33;2.90;;;;;;;21.43;57.36;98640.08;1754715;81;20996;-81
2022/08/27 07:38:41;;;;;;;11.03;3.22;;;;;;;21.53;56.51;98644.17;1753384;80;21063;-81
2022/08/27 07:41:13;;;;;;;6.33;2.83;;;;;;;21.62;57.11;98640.30;1750369;82;21038;-82
2022/08/27 07:46:25;;;;;;;11.68;2.92;;;;;;;21.89;56.46;98639.61;1734083;82;21502;-81
2022/08/27 07:48:55;;;;;;;7.20;3.02;;;;;;;22.00;56.66;98644.42;1752569;82;21015;-81
2022/08/27 07:51:24;;;;;;;10.05;3.20;;;;;;;22.15;56.50;98646.80;1740474;82;21093;-80
2022/08/27 07:53:52;;;;;;;6.30;3.08;;;;;;;22.24;56.05;98639.45;1744072;82;21551;-80
2022/08/27 07:56:21;;;;;;;10.18;3.40;;;;;;;22.35;56.21;98637.28;1747837;81;20975;-81
2022/08/27 07:58:47;;;;;;;6.15;3.20;;;;;;;22.45;54.01;98635.56;1753450;81;21057;-82
2022/08/27 08:01:14;;;;;;;10.58;3.10;;;;;;;22.55;55.39;98640.46;1745575;79;20990;-81
2022/08/27 08:03:41;;;;;;;11.88;3.80;;;;;;;22.65;55.15;98635.25;1757953;81;20994;-81
2022/08/27 08:06:12;;;;;;;10.30;3.60;;;;;;;22.78;54.88;98631.09;1741376;81;21062;-81
2022/08/27 08:08:40;;;;;;;13.95;3.12;;;;;;;22.89;54.54;98635.02;1741527;81;20985;-81
2022/08/27 08:11:10;;;;;;;6.47;2.83;;;;;;;23.01;54.37;98631.84;1741612;81;21006;-80
2022/08/27 08:13:37;;;;;;;10.82;3.30;;;;;;;23.10;54.25;98634.22;1741574;82;20955;-82
2022/08/27 08:16:05;;;;;;;13.08;3.02;;;;;;;23.21;54.23;98631.02;1741623;82;20986;-81
2022/08/27 08:18:33;;;;;;;6.50;3.15;;;;;;;23.32;54.20;98628.80;1740710;81;20991;-80
2022/08/27 08:21:07;;;;;;;7.78;2.85;;;;;;;23.46;54.23;98625.43;1741570;82;21243;-82
2022/08/27 08:23:34;;;;;;;8.70;2.90;;;;;;;23.56;53.79;98623.69;1739055;82;21045;-81
2022/08/27 08:26:01;;;;;;;8.28;3.10;;;;;;;23.71;53.40;98622.84;1741481;81;21030;-82
2022/08/27 08:28:29;;;;;;;5.05;3.15;;;;;;;23.90;51.52;98626.93;1741921;81;21060;-81
2022/08/27 08:30:57;;;;;;;7.17;3.40;;;;;;;23.96;51.01;98622.41;1741159;81;21519;-82
2022/08/27 08:33:26;;;;;;;9.40;3.10;;;;;;;24.05;50.81;98625.22;1741082;81;21021;-83
2022/08/27 08:35:53;;;;;;;9.15;3.05;;;;;;;24.18;50.91;98631.13;1742278;81;21122;-81
2022/08/27 08:38:20;;;;;;;10.48;2.98;;;;;;;24.30;50.71;98622.06;1743331;80;21251;-81
2022/08/27 08:40:53;;;;;;;11.33;3.20;;;;;;;24.41;50.49;98613.98;1740901;81;20967;-82
2022/08/27 08:43:39;;;;;;;10.43;3.60;;;;;;;24.51;50.70;98618.02;1741023;81;21042;-82
2022/08/27 08:46:15;;;;;;;10.68;3.27;;;;;;;24.62;50.75;98618.36;1742981;80;21002;-81
2022/08/27 08:48:46;;;;;;;12.28;3.55;;;;;;;24.71;49.88;98612.22;1741762;81;22046;-81
2022/08/27 08:51:24;;;;;;;8.35;3.15;;;;;;;24.86;49.50;98606.46;1742102;81;21017;-81
2022/08/27 08:53:56;;;;;;;11.85;3.55;;;;;;;24.90;48.68;98610.02;1763081;81;21073;-81
2022/08/27 08:56:28;;;;;;;10.47;3.33;;;;;;;25.02;48.53;98606.72;1721662;82;21018;-81
2022/08/27 08:59:17;;;;;;;9.30;3.02;;;;;;;25.09;48.56;98610.50;1741839;81;21113;-82
2022/08/27 09:01:44;;;;;;;9.68;3.20;;;;;;;25.22;48.42;98605.39;1737946;80;21085;-80
2022/08/27 09:04:12;;;;;;;7.87;3.10;;;;;;;25.31;48.06;98601.88;1751357;81;21042;-82
2022/08/27 09:07:01;;;;;;;5.78;2.95;;;;;;;25.45;47.71;98597.41;1741778;81;21045;-81
2022/08/27 09:09:57;;;;;;;6.50;3.12;;;;;;;25.58;46.37;98595.24;1739411;81;21585;-82
2022/08/27 09:12:29;;;;;;;6.25;3.10;;;;;;;25.66;42.62;98599.01;1717813;81;20998;-81
2022/08/27 09:15:13;;;;;;;11.60;3.25;;;;;;;25.78;45.80;98596.50;1734146;81;21016;-80
2022/08/27 09:17:40;;;;;;;10.35;2.92;;;;;;;25.86;46.02;98597.09;1741885;81;21018;-81
2022/08/27 09:20:10;;;;;;;8.43;3.30;;;;;;;26.01;45.80;98601.47;1741587;82;20966;-82
2022/08/27 09:22:54;;;;;;;8.78;3.17;;;;;;;26.16;45.89;98599.48;1739868;81;21017;-81
2022/08/27 09:25:29;;;;;;;10.60;3.20;;;;;;;26.27;46.14;98603.75;1741569;81;21073;-81
2022/08/27 09:28:00;;;;;;;9.85;2.95;;;;;;;26.41;45.87;98603.73;1791455;79;20987;-82
2022/08/27 09:30:32;;;;;;;11.53;2.95;;;;;;;26.53;45.67;98595.84;1790547;80;21063;-82
2022/08/27 09:33:05;;;;;;;18.85;3.55;;;;;;;26.65;45.46;98588.48;1791446;80;21030;-80
2022/08/27 09:35:45;;;;;;;7.92;3.15;;;;;;;26.78;44.88;98587.61;1791966;79;21183;-82
2022/08/27 09:38:28;;;;;;;8.75;3.30;;;;;;;26.92;44.40;98590.22;1753300;82;21039;-83
2022/08/27 09:41:06;;;;;;;8.13;3.22;;;;;;;27.04;43.91;98585.47;1789593;80;20970;-83
2022/08/27 09:43:35;;;;;;;12.13;3.10;;;;;;;27.11;43.41;98590.50;1753646;81;20952;-83
2022/08/27 09:46:22;;;;;;;7.92;2.80;;;;;;;27.23;41.58;98591.59;1789452;79;20987;-83
2022/08/27 09:48:49;;;;;;;9.55;3.12;;;;;;;27.33;42.30;98583.83;1789146;79;21018;-83
2022/08/27 09:51:23;;;;;;;10.10;3.22;;;;;;;27.45;40.71;98585.73;1724019;81;21006;-83
2022/08/27 09:53:57;;;;;;;16.25;3.35;;;;;;;27.56;41.84;98576.13;1775444;79;21039;-83
2022/08/27 09:56:37;;;;;;;19.20;3.37;;;;;;;27.69;41.41;98578.84;1769416;79;21026;-83
2022/08/27 09:59:26;;;;;;;7.05;2.62;;;;;;;27.84;39.96;98582.59;1766943;80;21086;-83
2022/08/27 10:02:07;;;;;;;9.38;2.55;;;;;;;27.94;40.49;98579.31;1771489;79;21542;-84
2022/08/27 10:04:50;;;;;;;10.40;2.70;;;;;;;28.09;40.29;98573.33;1772037;78;21583;-83
2022/08/27 10:07:51;;;;;;;16.23;2.80;;;;;;;28.25;40.02;98568.05;1755425;82;21038;-82
2022/08/27 10:10:58;;;;;;;11.95;2.58;;;;;;;28.38;39.06;98570.23;1721130;81;21014;-82
2022/08/27 10:13:39;;;;;;;8.90;3.20;;;;;;;28.54;39.35;98558.74;1736261;82;21021;-83
2022/08/27 10:16:28;;;;;;;13.72;3.00;;;;;;;28.67;39.26;98564.91;1738588;81;21009;-81
2022/08/27 10:19:06;;;;;;;12.65;3.45;;;;;;;28.71;38.92;98555.55;1803140;78;20991;-83
2022/08/27 10:21:46;;;;;;;13.38;3.20;;;;;;;28.88;39.21;98557.22;1802234;78;20971;-83
2022/08/27 10:24:21;;;;;;;10.98;3.33;;;;;;;29.02;37.95;98558.38;1744006;80;21565;-84
2022/08/27 10:27:08;;;;;;;8.68;3.87;;;;;;;29.15;37.76;98564.08;1751988;82;20983;-84
2022/08/27 10:29:52;;;;;;;12.33;3.20;;;;;;;29.25;37.98;98559.05;1737331;82;21546;-83
2022/08/27 10:32:33;;;;;;;8.98;3.00;;;;;;;29.41;37.92;98550.14;1738383;81;21027;-84
2022/08/27 10:35:22;;;;;;;10.18;2.85;;;;;;;29.54;37.59;98551.27;1693821;82;21587;-83
2022/08/27 10:38:25;;;;;;;11.30;2.60;;;;;;;29.64;35.89;98551.03;1774443;78;21018;-83
2022/08/27 10:41:19;;;;;;;11.12;3.70;;;;;;;29.75;35.83;98547.19;1753905;80;21046;-83
2022/08/27 10:44:08;;;;;;;12.55;3.02;;;;;;;29.87;35.86;98549.80;1754511;82;20963;-83
2022/08/27 10:47:03;;;;;;;16.27;2.95;;;;;;;29.99;35.24;98548.07;1734641;81;21035;-83
2022/08/27 10:49:51;;;;;;;7.72;2.80;;;;;;;30.03;34.95;98552.06;1741398;81;21037;-82
2022/08/27 10:52:42;;;;;;;7.87;2.70;;;;;;;30.18;35.54;98542.23;1790253;78;21007;-83
2022/08/27 10:55:15;;;;;;;12.95;2.80;;;;;;;30.38;35.04;98547.16;1754907;82;21043;-82
2022/08/27 10:58:07;;;;;;;5.83;2.67;;;;;;;30.59;34.94;98543.31;1753986;80;21593;-83
2022/08/27 11:00:48;;;;;;;9.05;2.75;;;;;;;30.73;34.64;98547.88;1741462;81;21029;-82
2022/08/27 11:03:32;;;;;;;11.10;3.30;;;;;;;30.87;34.52;98547.59;1756874;80;21062;-83
2022/08/27 11:06:07;;;;;;;10.28;3.12;;;;;;;30.99;32.33;98545.84;1798540;78;21094;-83
2022/08/27 11:08:39;;;;;;;13.30;2.85;;;;;;;31.09;32.22;98540.52;1758036;81;20955;-83
2022/08/27 11:11:11;;;;;;;9.95;3.50;;;;;;;31.13;31.67;98537.80;1797208;78;21523;-83
2022/08/27 11:13:45;;;;;;;12.47;3.35;;;;;;;31.20;31.60;98535.74;1741843;81;20983;-83
2022/08/27 11:16:40;;;;;;;8.75;2.72;;;;;;;31.28;31.85;98532.97;1798109;79;21045;-82
2022/08/27 11:19:25;;;;;;;10.50;2.62;;;;;;;31.42;32.01;98525.92;1765813;81;21039;-82
2022/08/27 11:22:19;;;;;;;9.00;2.80;;;;;;;31.59;31.86;98533.29;1763451;81;21014;-83
2022/08/27 11:25:03;;;;;;;6.55;2.50;;;;;;;31.83;31.41;98538.85;1777014;78;21033;-83
2022/08/27 11:27:32;;;;;;;11.50;2.92;;;;;;;31.99;30.89;98535.11;1739497;81;21352;-84
2022/08/27 11:30:07;;;;;;;12.98;2.55;;;;;;;32.15;30.76;98528.69;1800308;80;21069;-84
2022/08/27 11:32:52;;;;;;;14.40;2.60;;;;;;;32.34;30.26;98530.75;1768925;81;21005;-84
2022/08/27 11:35:25;;;;;;;7.28;2.52;;;;;;;32.54;29.16;98525.55;1759026;81;20996;-84
2022/08/27 11:38:19;;;;;;;5.60;2.10;;;;;;;32.72;28.41;98525.11;1787407;78;21041;-83
2022/08/27 11:41:14;;;;;;;11.77;2.97;;;;;;;32.83;28.35;98518.38;1733306;80;38363;-83
2022/08/27 11:43:43;;;;;;;9.45;2.70;;;;;;;32.96;26.52;98511.72;1767373;80;21007;-84
2022/08/27 11:46:11;;;;;;;6.97;2.40;;;;;;;33.21;27.49;98516.16;1782155;80;20976;-83
2022/08/27 11:48:43;;;;;;;8.20;2.45;;;;;;;33.41;27.77;98511.41;1794088;80;20984;-84
2022/08/27 11:51:14;;;;;;;5.78;2.40;;;;;;;33.58;27.09;98509.19;1732183;81;21006;-84
2022/08/27 11:54:05;;;;;;;8.50;2.47;;;;;;;33.69;26.62;98500.56;1760794;81;21082;-83
2022/08/27 11:56:40;;;;;;;8.78;2.45;;;;;;;33.75;25.24;98500.28;1774831;80;20973;-83
2022/08/27 11:59:31;;;;;;;8.55;2.52;;;;;;;33.88;26.70;98494.91;1799158;78;20974;-83